Time;durP1;ratioP1;P1;durP2;ratioP2;P2;SDS_P1;SDS_P2;PMS_P1;PMS_P2;Temp;Humidity;BMP_temperature;BMP_pressure;BME280_temperature;BME280_humidity;BME280_pressure;Samples;Min_cycle;Max_cycle;Signal;HPM_P1;HPM_P2
2021/10/04 00:01:31;;;;;;;3.67;1.30;;;12.50;99.70;;;;;;4963965;28;20117;-88
2021/10/04 00:03:56;;;;;;;4.95;1.38;;;12.40;99.70;;;;;;4990717;28;20062;-88
2021/10/04 00:06:22;;;;;;;4.82;1.77;;;12.40;99.80;;;;;;4987713;28;20533;-89
2021/10/04 00:08:48;;;;;;;3.25;1.40;;;12.40;99.90;;;;;;5006108;28;20025;-88
2021/10/04 00:11:14;;;;;;;6.10;1.58;;;12.40;99.90;;;;;;5011474;28;20037;-89
2021/10/04 00:13:39;;;;;;;6.07;1.70;;;12.40;99.90;;;;;;4983523;28;20128;-89
2021/10/04 00:16:05;;;;;;;4.43;1.60;;;12.40;99.90;;;;;;4988873;28;20042;-89
2021/10/04 00:18:31;;;;;;;6.40;1.50;;;12.40;99.90;;;;;;4990512;28;20022;-88
2021/10/04 00:20:56;;;;;;;4.13;1.60;;;12.40;99.70;;;;;;4997906;28;20056;-89
2021/10/04 00:23:22;;;;;;;6.18;1.80;;;12.30;99.80;;;;;;4994571;28;20026;-89
2021/10/04 00:25:48;;;;;;;5.15;1.70;;;12.30;99.90;;;;;;4992779;28;20444;-89
2021/10/04 00:28:14;;;;;;;4.00;1.70;;;12.30;99.90;;;;;;4989329;28;20082;-89
2021/10/04 00:30:40;;;;;;;7.30;1.85;;;12.30;99.90;;;;;;5011980;28;20025;-89
2021/10/04 00:33:06;;;;;;;5.65;1.70;;;12.20;99.90;;;;;;4992549;28;20030;-88
2021/10/04 00:35:31;;;;;;;5.05;2.00;;;12.20;99.90;;;;;;4999606;28;20033;-88
2021/10/04 00:37:57;;;;;;;5.80;1.70;;;12.20;99.90;;;;;;4984966;28;20037;-90
2021/10/04 00:40:30;;;;;;;3.80;1.83;;;12.30;99.90;;;;;;4996658;28;20418;-89
2021/10/04 00:42:55;;;;;;;5.25;1.67;;;12.20;99.90;;;;;;4993764;28;20169;-88
2021/10/04 00:45:21;;;;;;;6.30;1.70;;;12.30;99.90;;;;;;4965093;28;20057;-88
2021/10/04 00:47:47;;;;;;;6.00;1.95;;;12.20;99.90;;;;;;5012816;28;20025;-89
2021/10/04 00:50:15;;;;;;;5.80;2.17;;;12.30;99.90;;;;;;5004603;28;20036;-89
2021/10/04 00:52:41;;;;;;;4.90;1.92;;;12.20;99.90;;;;;;4992726;28;20360;-89
2021/10/04 00:55:09;;;;;;;4.05;1.75;;;12.20;99.90;;;;;;4997005;28;20076;-90
2021/10/04 00:57:36;;;;;;;5.38;2.05;;;12.20;99.90;;;;;;4991072;28;20034;-88
2021/10/04 01:00:10;;;;;;;5.45;1.83;;;12.20;99.90;;;;;;5015298;28;20129;-89
2021/10/04 01:02:35;;;;;;;2.72;1.60;;;12.20;99.90;;;;;;5020917;28;20014;-90
2021/10/04 01:05:03;;;;;;;4.80;1.80;;;12.20;99.90;;;;;;5012132;28;20078;-90
2021/10/04 01:07:28;;;;;;;5.60;2.10;;;12.20;99.90;;;;;;5017519;28;20144;-91
2021/10/04 01:09:54;;;;;;;5.30;1.70;;;12.20;99.90;;;;;;5014328;28;20022;-90
2021/10/04 01:12:20;;;;;;;4.32;1.58;;;12.20;99.90;;;;;;5009839;28;20034;-89
2021/10/04 01:14:45;;;;;;;13.40;2.75;;;12.20;99.90;;;;;;5028791;28;20034;-89
2021/10/04 01:17:11;;;;;;;5.72;2.10;;;12.20;99.90;;;;;;4996620;28;20041;-88
2021/10/04 01:19:40;;;;;;;3.63;1.55;;;12.20;99.90;;;;;;5012689;28;20454;-89
2021/10/04 01:22:07;;;;;;;4.55;1.40;;;12.20;99.90;;;;;;4998924;28;20073;-89
2021/10/04 01:24:33;;;;;;;4.53;1.60;;;12.20;99.90;;;;;;4980530;28;20430;-88
2021/10/04 01:26:58;;;;;;;3.85;1.60;;;12.20;99.90;;;;;;5013146;28;20097;-90
2021/10/04 01:29:24;;;;;;;5.03;1.85;;;12.20;99.90;;;;;;4980119;28;20037;-88
2021/10/04 01:31:50;;;;;;;7.65;1.63;;;12.20;99.90;;;;;;4996102;28;20036;-88
2021/10/04 01:34:16;;;;;;;3.08;1.30;;;12.20;99.90;;;;;;4993892;28;20455;-88
2021/10/04 01:36:41;;;;;;;4.57;1.58;;;12.20;99.90;;;;;;5002957;28;20022;-89
2021/10/04 01:39:07;;;;;;;2.60;1.40;;;12.20;99.90;;;;;;5003658;28;20050;-89
2021/10/04 01:41:33;;;;;;;4.03;1.50;;;12.20;99.90;;;;;;5015923;28;20025;-89
2021/10/04 01:43:58;;;;;;;2.50;1.30;;;12.30;99.90;;;;;;5016084;28;20033;-88
2021/10/04 01:46:24;;;;;;;3.22;1.30;;;12.30;99.90;;;;;;5015860;28;20030;-89
2021/10/04 01:48:50;;;;;;;3.55;1.35;;;12.30;99.90;;;;;;5032225;28;20037;-89
2021/10/04 01:51:16;;;;;;;4.30;1.55;;;12.30;99.90;;;;;;5015612;28;20029;-90
2021/10/04 01:53:42;;;;;;;4.00;1.50;;;12.30;99.90;;;;;;5015707;28;20029;-89
2021/10/04 01:56:08;;;;;;;3.25;1.52;;;12.20;99.90;;;;;;5019127;28;20116;-90
2021/10/04 01:58:34;;;;;;;4.13;1.40;;;12.20;99.80;;;;;;5007127;28;20173;-88
2021/10/04 02:01:01;;;;;;;3.90;1.00;;;12.20;99.90;;;;;;5026530;28;20026;-89
2021/10/04 02:03:28;;;;;;;6.28;1.40;;;12.20;99.90;;;;;;5016595;28;20021;-90
2021/10/04 02:05:54;;;;;;;4.55;1.30;;;12.20;99.90;;;;;;4990541;28;20049;-89
2021/10/04 02:08:20;;;;;;;6.85;2.13;;;12.30;99.80;;;;;;5014719;28;20090;-89
2021/10/04 02:10:46;;;;;;;4.03;1.27;;;12.30;99.60;;;;;;5010475;28;20123;-89
2021/10/04 02:13:12;;;;;;;2.40;1.10;;;12.30;99.90;;;;;;5008269;28;20100;-90
2021/10/04 02:15:40;;;;;;;3.90;1.30;;;12.30;99.90;;;;;;5025968;28;20036;-88
2021/10/04 02:18:08;;;;;;;4.13;1.20;;;12.30;99.70;;;;;;5036888;28;20512;-88
2021/10/04 02:20:37;;;;;;;4.60;1.40;;;12.30;99.70;;;;;;5036926;28;20064;-88
2021/10/04 02:23:08;;;;;;;2.50;1.20;;;12.30;99.90;;;;;;5028818;28;20374;-90
2021/10/04 02:25:52;;;;;;;3.80;1.50;;;12.30;99.60;;;;;;5021422;28;20034;-89
2021/10/04 02:28:18;;;;;;;5.13;1.42;;;12.30;99.50;;;;;;5020031;28;20026;-90
2021/10/04 02:30:45;;;;;;;5.93;1.60;;;12.30;99.80;;;;;;5018764;28;20025;-89
2021/10/04 02:33:12;;;;;;;5.00;1.10;;;12.30;99.70;;;;;;5019683;28;20033;-89
2021/10/04 02:35:38;;;;;;;2.40;1.30;;;12.30;99.50;;;;;;5018925;28;20029;-89
2021/10/04 02:38:05;;;;;;;5.30;1.75;;;12.30;99.60;;;;;;5008833;28;20029;-89
2021/10/04 02:40:32;;;;;;;3.33;1.35;;;12.30;99.70;;;;;;4999978;28;20122;-89
2021/10/04 02:42:57;;;;;;;3.25;1.38;;;12.40;99.90;;;;;;5015387;28;20034;-89
2021/10/04 02:45:24;;;;;;;3.03;1.20;;;12.30;99.40;;;;;;4985884;28;20037;-90
2021/10/04 02:47:52;;;;;;;4.22;1.30;;;12.30;99.30;;;;;;5010780;28;20019;-89
2021/10/04 02:50:20;;;;;;;3.08;1.20;;;12.30;99.60;;;;;;4990540;28;20018;-89
2021/10/04 02:52:46;;;;;;;2.75;1.17;;;12.30;99.50;;;;;;4995421;28;20018;-88
2021/10/04 02:55:12;;;;;;;4.32;1.55;;;12.30;99.30;;;;;;5005306;28;20033;-89
2021/10/04 02:57:38;;;;;;;5.40;1.33;;;12.30;99.30;;;;;;4998548;28;20030;-89
2021/10/04 03:00:07;;;;;;;4.47;1.75;;;12.30;99.40;;;;;;4999342;28;20030;-88
2021/10/04 03:02:33;;;;;;;2.97;1.23;;;12.30;99.20;;;;;;4998761;28;20022;-89
2021/10/04 03:04:58;;;;;;;2.30;1.13;;;12.30;99.50;;;;;;4982959;28;20041;-89
2021/10/04 03:07:24;;;;;;;3.85;1.00;;;12.30;99.10;;;;;;4979136;28;20038;-89
2021/10/04 03:09:51;;;;;;;3.15;1.10;;;12.30;99.10;;;;;;4979853;28;20025;-90
2021/10/04 03:12:18;;;;;;;7.45;2.35;;;12.30;99.10;;;;;;5013597;28;20036;-88
2021/10/04 03:14:44;;;;;;;2.30;1.17;;;12.30;99.00;;;;;;4997971;28;20026;-89
2021/10/04 03:17:09;;;;;;;4.93;1.40;;;12.30;99.00;;;;;;4979288;28;20066;-88
2021/10/04 03:19:35;;;;;;;6.47;1.30;;;12.30;99.00;;;;;;4992354;28;20100;-88
2021/10/04 03:22:01;;;;;;;5.95;1.67;;;12.30;98.90;;;;;;4998255;28;20030;-89
2021/10/04 03:24:27;;;;;;;4.22;1.15;;;12.30;98.90;;;;;;5014858;28;20556;-88
2021/10/04 03:26:52;;;;;;;6.38;1.30;;;12.30;99.00;;;;;;5011350;28;20045;-89
2021/10/04 03:29:18;;;;;;;3.28;1.05;;;12.40;98.90;;;;;;4988248;28;20390;-89
2021/10/04 03:31:44;;;;;;;5.25;1.63;;;12.40;99.20;;;;;;4989569;28;20041;-89
2021/10/04 03:34:11;;;;;;;4.53;1.27;;;12.40;98.80;;;;;;4998508;28;20099;-89
2021/10/04 03:36:37;;;;;;;4.35;1.17;;;12.40;99.00;;;;;;4998171;28;20542;-89
2021/10/04 03:39:05;;;;;;;3.30;0.88;;;12.40;98.90;;;;;;5020919;28;20058;-89
2021/10/04 03:41:31;;;;;;;3.17;1.05;;;12.40;99.10;;;;;;5035492;28;20115;-88
2021/10/04 03:43:57;;;;;;;5.82;1.55;;;12.40;99.10;;;;;;5015436;28;20030;-90
2021/10/04 03:46:23;;;;;;;4.30;1.35;;;12.40;99.10;;;;;;5035134;28;20033;-89
2021/10/04 03:48:49;;;;;;;4.63;1.20;;;12.50;99.00;;;;;;5015429;28;20116;-88
2021/10/04 03:51:15;;;;;;;5.25;1.27;;;12.40;98.60;;;;;;5006304;28;20116;-89
2021/10/04 03:53:41;;;;;;;5.70;1.17;;;12.40;99.10;;;;;;5003208;28;20080;-89
2021/10/04 03:56:06;;;;;;;4.65;1.15;;;12.40;98.60;;;;;;5017439;28;20030;-88
2021/10/04 03:58:32;;;;;;;4.10;1.17;;;12.40;98.70;;;;;;5017361;28;20018;-88
2021/10/04 04:00:58;;;;;;;2.55;1.15;;;12.50;99.00;;;;;;5032129;28;20041;-88
2021/10/04 04:03:24;;;;;;;2.90;0.98;;;12.50;98.60;;;;;;5008002;28;20576;-88
2021/10/04 04:05:50;;;;;;;3.40;0.95;;;12.40;98.70;;;;;;5030337;28;20064;-88
2021/10/04 04:08:15;;;;;;;6.35;1.23;;;12.50;98.80;;;;;;5018155;28;20381;-88
2021/10/04 04:10:43;;;;;;;5.28;1.17;;;12.40;98.70;;;;;;5023952;28;20029;-88
2021/10/04 04:13:09;;;;;;;4.22;1.10;;;12.40;98.40;;;;;;5036276;28;20385;-89
2021/10/04 04:15:35;;;;;;;5.97;1.92;;;12.40;98.50;;;;;;5010784;28;20029;-88
2021/10/04 04:18:01;;;;;;;5.47;1.38;;;12.40;99.00;;;;;;5017348;28;20030;-90
2021/10/04 04:20:26;;;;;;;4.35;1.17;;;12.40;98.80;;;;;;5034864;28;20028;-89
2021/10/04 04:22:52;;;;;;;10.88;1.65;;;12.40;98.50;;;;;;5013349;28;20056;-89
2021/10/04 04:25:18;;;;;;;8.20;1.50;;;12.40;98.40;;;;;;5018681;28;20112;-89
2021/10/04 04:27:44;;;;;;;7.45;2.30;;;12.40;98.60;;;;;;5016421;28;20029;-90
2021/10/04 04:30:12;;;;;;;5.72;1.30;;;12.40;98.50;;;;;;4988093;28;20030;-89
2021/10/04 04:32:41;;;;;;;6.43;1.88;;;12.40;98.90;;;;;;5035098;28;20030;-89
2021/10/04 04:35:07;;;;;;;5.88;1.10;;;12.40;98.80;;;;;;5017842;28;20026;-89
2021/10/04 04:37:38;;;;;;;4.65;1.30;;;12.40;98.80;;;;;;5017211;28;20466;-89
2021/10/04 04:40:06;;;;;;;3.40;1.08;;;12.40;98.60;;;;;;5028295;28;20045;-91
2021/10/04 04:42:32;;;;;;;6.00;1.35;;;12.40;98.70;;;;;;5034544;28;20110;-89
2021/10/04 04:44:58;;;;;;;4.53;1.10;;;12.40;98.60;;;;;;5043057;28;20010;-90
2021/10/04 04:47:24;;;;;;;4.18;1.30;;;12.40;98.60;;;;;;5039811;28;20017;-91
2021/10/04 04:49:49;;;;;;;4.05;1.30;;;12.40;98.50;;;;;;5020662;28;20101;-89
2021/10/04 04:52:15;;;;;;;6.50;1.30;;;12.40;98.60;;;;;;5050952;28;20033;-88
2021/10/04 04:54:41;;;;;;;5.15;2.05;;;12.40;98.80;;;;;;5055822;28;20021;-90
2021/10/04 04:57:07;;;;;;;6.38;1.30;;;12.40;98.50;;;;;;5015139;28;20036;-89
2021/10/04 04:59:34;;;;;;;5.53;1.00;;;12.40;98.60;;;;;;5018351;28;20031;-90
2021/10/04 05:02:00;;;;;;;3.40;1.38;;;12.40;98.50;;;;;;5017869;28;20025;-91
2021/10/04 05:04:28;;;;;;;2.75;1.40;;;12.40;98.50;;;;;;5019212;28;20042;-89
2021/10/04 05:06:53;;;;;;;2.80;1.40;;;12.40;98.60;;;;;;5016512;28;20034;-90
2021/10/04 05:09:19;;;;;;;3.05;1.33;;;12.40;98.70;;;;;;5013268;28;20029;-90
2021/10/04 05:11:45;;;;;;;4.57;1.70;;;12.40;98.60;;;;;;5006306;28;20025;-89
2021/10/04 05:14:11;;;;;;;4.68;1.48;;;12.40;98.60;;;;;;5015982;28;20022;-89
2021/10/04 05:16:37;;;;;;;4.22;1.33;;;12.40;98.50;;;;;;5032330;28;20037;-89
2021/10/04 05:19:06;;;;;;;4.38;1.10;;;12.40;98.90;;;;;;5005743;28;20040;-90
2021/10/04 05:21:32;;;;;;;4.18;1.35;;;12.40;98.70;;;;;;5013750;28;20493;-88
2021/10/04 05:23:58;;;;;;;4.57;1.25;;;12.40;98.60;;;;;;5029917;28;20034;-89
2021/10/04 05:26:24;;;;;;;4.20;1.20;;;12.30;98.70;;;;;;4981714;28;20125;-90
2021/10/04 05:28:49;;;;;;;4.30;1.40;;;12.30;98.70;;;;;;5000713;28;20040;-88
2021/10/04 05:31:18;;;;;;;4.68;1.23;;;12.40;98.80;;;;;;5016865;28;20040;-89
2021/10/04 05:33:43;;;;;;;4.55;1.40;;;12.40;98.90;;;;;;5014693;28;20057;-90
2021/10/04 05:36:09;;;;;;;4.93;1.20;;;12.30;98.70;;;;;;5006794;28;20061;-89
2021/10/04 05:38:35;;;;;;;3.10;1.40;;;12.30;98.80;;;;;;5031491;28;20140;-89
2021/10/04 05:41:01;;;;;;;3.60;1.50;;;12.30;99.00;;;;;;5001813;28;20179;-88
2021/10/04 05:43:27;;;;;;;4.05;1.10;;;12.30;98.70;;;;;;5016323;28;20060;-89
2021/10/04 05:45:52;;;;;;;5.32;1.35;;;12.30;98.80;;;;;;5007333;28;20063;-89
2021/10/04 05:48:18;;;;;;;4.72;1.50;;;12.30;98.70;;;;;;5017393;28;20091;-89
2021/10/04 05:50:45;;;;;;;2.20;1.10;;;12.30;98.60;;;;;;5017582;28;20021;-89
2021/10/04 05:53:11;;;;;;;5.15;1.35;;;12.30;98.60;;;;;;5025135;28;20089;-89
2021/10/04 05:55:37;;;;;;;5.97;1.52;;;12.30;98.70;;;;;;5012651;28;20042;-88
2021/10/04 05:58:02;;;;;;;4.75;1.30;;;12.30;98.70;;;;;;5007727;28;20022;-90
2021/10/04 06:00:29;;;;;;;4.85;1.30;;;12.30;98.60;;;;;;5020038;28;20022;-89
2021/10/04 06:02:58;;;;;;;4.00;1.42;;;12.30;98.80;;;;;;5016368;28;20029;-91
2021/10/04 06:05:25;;;;;;;2.50;1.55;;;12.30;98.90;;;;;;4993099;28;20078;-92
2021/10/04 06:07:50;;;;;;;3.70;1.15;;;12.30;98.60;;;;;;5009346;28;20045;-90
2021/10/04 06:10:17;;;;;;;3.25;1.30;;;12.30;98.50;;;;;;5041760;28;20029;-90
2021/10/04 06:12:43;;;;;;;3.83;1.20;;;12.30;98.70;;;;;;5047882;28;20006;-90
2021/10/04 06:15:10;;;;;;;6.90;1.45;;;12.30;98.40;;;;;;5020042;28;20074;-90
2021/10/04 06:17:36;;;;;;;4.68;1.30;;;12.30;98.60;;;;;;5000861;28;21023;-90
2021/10/04 06:20:02;;;;;;;4.43;1.20;;;12.30;98.50;;;;;;5030036;28;20463;-90
2021/10/04 06:22:28;;;;;;;5.05;1.65;;;12.30;98.90;;;;;;5020427;28;20106;-89
2021/10/04 06:24:54;;;;;;;2.47;1.42;;;12.40;98.70;;;;;;5015612;28;20041;-88
2021/10/04 06:27:20;;;;;;;2.60;1.10;;;12.40;98.80;;;;;;5015524;28;20042;-89
2021/10/04 06:29:46;;;;;;;5.53;1.58;;;12.40;98.50;;;;;;5009176;28;20040;-88
2021/10/04 06:32:12;;;;;;;4.20;1.08;;;12.40;98.60;;;;;;5015429;28;20034;-90
2021/10/04 06:34:40;;;;;;;3.72;1.25;;;12.40;98.50;;;;;;5020446;28;20432;-89
2021/10/04 06:37:06;;;;;;;2.70;0.95;;;12.40;98.50;;;;;;4997515;28;20053;-89
2021/10/04 06:39:31;;;;;;;5.03;1.10;;;12.40;98.50;;;;;;5015523;28;20053;-89
2021/10/04 06:41:57;;;;;;;6.18;1.48;;;12.40;98.50;;;;;;5033221;28;20038;-89
2021/10/04 06:44:23;;;;;;;5.95;1.25;;;12.40;98.40;;;;;;5015874;28;20347;-87
2021/10/04 06:46:48;;;;;;;6.28;1.52;;;12.40;98.30;;;;;;5031492;28;20044;-90
2021/10/04 06:49:14;;;;;;;4.05;1.10;;;12.40;98.40;;;;;;4999976;28;20107;-89
2021/10/04 06:51:43;;;;;;;1.73;0.98;;;12.40;98.40;;;;;;5011258;28;20434;-89
2021/10/04 06:54:08;;;;;;;4.15;1.73;;;12.40;98.30;;;;;;5002658;28;20034;-89
2021/10/04 06:56:34;;;;;;;5.15;1.42;;;12.40;98.50;;;;;;5024108;28;20136;-92
2021/10/04 06:59:02;;;;;;;3.20;1.33;;;12.40;98.40;;;;;;5024093;28;20029;-95
2021/10/04 07:01:28;;;;;;;5.05;1.40;;;12.40;98.40;;;;;;5038250;28;20037;-94
2021/10/04 07:03:53;;;;;;;3.72;1.65;;;12.50;98.50;;;;;;5014430;28;20431;-93
2021/10/04 07:06:19;;;;;;;3.92;1.30;;;12.50;98.20;;;;;;5002233;28;20049;-93
2021/10/04 07:08:45;;;;;;;6.80;1.65;;;12.50;98.30;;;;;;5008813;28;20032;-92
2021/10/04 07:11:10;;;;;;;4.70;1.15;;;12.50;98.30;;;;;;5018631;28;20056;-92
2021/10/04 07:13:36;;;;;;;3.25;1.25;;;12.50;98.40;;;;;;5035104;28;20033;-94
2021/10/04 07:16:03;;;;;;;5.20;1.65;;;12.50;98.20;;;;;;5001929;28;20053;-94
2021/10/04 07:18:29;;;;;;;6.68;1.88;;;12.50;98.40;;;;;;5017525;28;20022;-93
2021/10/04 07:20:55;;;;;;;5.32;1.65;;;12.50;98.00;;;;;;5010502;28;20036;-91
2021/10/04 07:23:20;;;;;;;4.13;1.33;;;12.50;98.20;;;;;;5016787;28;20025;-94
2021/10/04 07:25:49;;;;;;;4.78;1.10;;;12.50;97.90;;;;;;4981099;28;20488;-91
2021/10/04 07:28:14;;;;;;;4.68;1.60;;;12.60;98.40;;;;;;5028795;28;20024;-91
2021/10/04 07:30:40;;;;;;;4.18;1.55;;;12.50;98.30;;;;;;5010728;28;20108;-88
2021/10/04 07:33:07;;;;;;;4.70;1.38;;;12.60;98.20;;;;;;4997646;28;20025;-90
2021/10/04 07:35:33;;;;;;;4.22;1.30;;;12.50;98.30;;;;;;5013965;28;20045;-90
2021/10/04 07:37:59;;;;;;;6.95;1.75;;;12.50;98.30;;;;;;4996054;28;20025;-91
2021/10/04 07:40:26;;;;;;;7.47;1.70;;;12.60;98.10;;;;;;5029975;28;20046;-89
2021/10/04 07:42:52;;;;;;;7.18;1.52;;;12.60;98.30;;;;;;5001404;28;20026;-89
2021/10/04 07:45:18;;;;;;;4.35;1.48;;;12.50;98.20;;;;;;4996280;28;20029;-91
2021/10/04 07:47:44;;;;;;;5.75;1.40;;;12.60;98.10;;;;;;5013387;28;20043;-91
2021/10/04 07:50:14;;;;;;;3.22;1.15;;;12.60;98.30;;;;;;5034872;28;20026;-92
2021/10/04 07:52:40;;;;;;;5.30;1.20;;;12.60;98.00;;;;;;5017407;28;20025;-92
2021/10/04 07:55:07;;;;;;;2.95;1.15;;;12.60;98.00;;;;;;5017224;28;20688;-91
2021/10/04 07:57:33;;;;;;;2.80;1.27;;;12.60;98.30;;;;;;4999854;28;20095;-90
2021/10/04 07:59:59;;;;;;;4.22;1.20;;;12.60;97.70;;;;;;4981867;28;20470;-89
2021/10/04 08:02:25;;;;;;;4.07;1.38;;;12.60;98.00;;;;;;5017281;28;20087;-93
2021/10/04 08:04:53;;;;;;;5.75;1.77;;;12.60;97.90;;;;;;4994624;28;20053;-93
2021/10/04 08:07:19;;;;;;;8.27;1.40;;;12.60;97.90;;;;;;5017615;28;20152;-93
2021/10/04 08:09:45;;;;;;;5.72;1.55;;;12.60;97.80;;;;;;5006324;28;20033;-90
2021/10/04 08:12:11;;;;;;;2.90;1.38;;;12.70;98.20;;;;;;5018718;28;20052;-90
2021/10/04 08:14:37;;;;;;;4.45;1.20;;;12.70;98.30;;;;;;4975319;28;20022;-90
2021/10/04 08:17:04;;;;;;;5.28;1.40;;;12.80;98.50;;;;;;4995311;28;20034;-89
2021/10/04 08:19:32;;;;;;;3.75;1.27;;;12.80;98.40;;;;;;5025501;28;20076;-93
2021/10/04 08:21:58;;;;;;;5.55;1.30;;;12.90;98.20;;;;;;5027577;28;20018;-93
2021/10/04 08:24:23;;;;;;;4.93;1.88;;;12.90;98.20;;;;;;5034477;28;20021;-93
2021/10/04 08:26:51;;;;;;;3.15;1.52;;;13.00;98.10;;;;;;5021961;28;20029;-94
2021/10/04 08:29:18;;;;;;;5.57;1.30;;;13.10;98.40;;;;;;5023951;28;20010;-93
2021/10/04 08:31:43;;;;;;;4.63;1.38;;;13.20;98.20;;;;;;5031199;28;20029;-93
2021/10/04 08:34:09;;;;;;;3.10;1.27;;;13.20;97.70;;;;;;5052988;28;20081;-93
2021/10/04 08:36:35;;;;;;;6.97;1.77;;;13.30;97.80;;;;;;5037910;28;20032;-93
2021/10/04 08:39:03;;;;;;;4.78;1.25;;;13.30;97.60;;;;;;5047511;28;20057;-93
2021/10/04 08:41:35;;;;;;;5.45;1.45;;;13.40;97.20;;;;;;5000526;28;20022;-93
2021/10/04 08:44:11;;;;;;;3.63;1.10;;;13.50;97.40;;;;;;4996249;28;20080;-93
2021/10/04 08:46:39;;;;;;;8.32;1.88;;;13.50;97.30;;;;;;5006383;28;20025;-94
2021/10/04 08:49:08;;;;;;;4.93;1.65;;;13.60;97.30;;;;;;5015020;28;20026;-92
2021/10/04 08:51:36;;;;;;;4.82;1.30;;;13.70;97.00;;;;;;4998885;28;20085;-93
2021/10/04 08:54:12;;;;;;;4.47;1.05;;;13.70;96.80;;;;;;5010637;28;20121;-91
2021/10/04 08:56:39;;;;;;;8.90;1.77;;;13.80;96.90;;;;;;5011671;28;20022;-92
2021/10/04 08:59:15;;;;;;;;;;;;;;;;;;;;;
2021/10/04 09:01:41;;;;;;;3.50;1.50;;;13.90;97.00;;;;;;5009089;28;20048;-92
2021/10/04 09:04:06;;;;;;;5.40;1.42;;;14.10;96.80;;;;;;4996688;28;20109;-92
2021/10/04 09:06:35;;;;;;;5.63;1.30;;;14.10;96.00;;;;;;5005565;28;20030;-93
2021/10/04 09:09:07;;;;;;;5.18;1.95;;;14.20;96.20;;;;;;4991943;28;20025;-91
2021/10/04 09:11:36;;;;;;;5.13;1.38;;;14.30;96.20;;;;;;5006162;28;20033;-92
2021/10/04 09:14:15;;;;;;;3.47;1.33;;;14.40;96.30;;;;;;4997781;28;20057;-93
2021/10/04 09:17:07;;;;;;;4.93;1.60;;;14.40;96.20;;;;;;5013711;28;20040;-89
2021/10/04 09:19:39;;;;;;;8.18;1.77;;;14.50;96.20;;;;;;4993115;28;20034;-88
2021/10/04 09:22:20;;;;;;;4.68;1.70;;;14.60;95.10;;;;;;5000518;28;20033;-88
2021/10/04 09:25:01;;;;;;;7.22;1.50;;;14.70;95.30;;;;;;5014779;28;20077;-90
2021/10/04 09:27:32;;;;;;;8.77;1.67;;;14.80;95.40;;;;;;4995504;28;20438;-90
2021/10/04 09:30:00;;;;;;;5.40;1.48;;;14.90;95.60;;;;;;4994979;28;20053;-92
2021/10/04 09:32:35;;;;;;;5.43;1.52;;;15.00;94.70;;;;;;4995149;28;20018;-92
2021/10/04 09:35:22;;;;;;;7.90;1.50;;;15.00;95.50;;;;;;4995013;28;20034;-90
2021/10/04 09:38:00;;;;;;;7.55;2.17;;;15.10;94.80;;;;;;4992560;28;20045;-90
2021/10/04 09:40:44;;;;;;;3.92;1.27;;;15.20;94.80;;;;;;5010909;28;20068;-95
2021/10/04 09:43:31;;;;;;;5.75;1.33;;;15.30;94.40;;;;;;5032637;28;20076;-89
2021/10/04 09:45:58;;;;;;;9.50;1.65;;;15.40;93.80;;;;;;5014086;28;20410;-91
2021/10/04 09:48:24;;;;;;;7.63;1.30;;;15.50;94.00;;;;;;5013818;28;20022;-91
2021/10/04 09:50:50;;;;;;;6.93;1.27;;;15.60;93.70;;;;;;5000408;28;20056;-90
2021/10/04 09:53:16;;;;;;;5.43;1.10;;;15.70;93.10;;;;;;5016396;28;20466;-91
2021/10/04 09:55:47;;;;;;;7.38;1.25;;;15.80;93.60;;;;;;5000361;28;20526;-91
2021/10/04 09:58:14;;;;;;;;;;;15.80;93.00;;;;;;4992431;28;20099;-90
2021/10/04 10:01:01;;;;;;;5.82;1.20;;;16.00;93.30;;;;;;5028652;28;19935;-90
2021/10/04 10:03:39;;;;;;;6.22;1.50;;;16.00;93.40;;;;;;5033361;28;20500;-93
2021/10/04 10:06:05;;;;;;;5.88;1.35;;;16.10;93.00;;;;;;5012324;28;20042;-91
2021/10/04 10:08:31;;;;;;;4.22;1.27;;;16.20;92.50;;;;;;5013392;28;20018;-91
2021/10/04 10:11:00;;;;;;;3.92;1.00;;;16.30;92.40;;;;;;4982424;28;20113;-91
2021/10/04 10:13:29;;;;;;;6.63;1.70;;;16.40;91.60;;;;;;5024799;28;20021;-92
2021/10/04 10:16:15;;;;;;;8.40;1.25;;;16.40;91.30;;;;;;5032401;28;20025;-92
2021/10/04 10:19:03;;;;;;;7.88;1.30;;;16.50;91.10;;;;;;5016300;28;20351;-90
2021/10/04 10:21:32;;;;;;;4.55;1.90;;;16.60;91.90;;;;;;5011661;28;20079;-91
2021/10/04 10:24:08;;;;;;;6.00;1.05;;;16.70;91.30;;;;;;5014888;28;20040;-93
2021/10/04 10:26:44;;;;;;;7.97;1.35;;;16.70;91.30;;;;;;5019554;28;20470;-93
2021/10/04 10:29:12;;;;;;;6.90;1.27;;;16.80;90.80;;;;;;5032830;28;20076;-92
2021/10/04 10:31:50;;;;;;;4.15;1.00;;;16.90;90.50;;;;;;5036113;28;20029;-94
2021/10/04 10:34:32;;;;;;;4.47;1.35;;;16.90;91.00;;;;;;5014173;28;20052;-93
2021/10/04 10:37:06;;;;;;;3.67;1.50;;;17.00;90.20;;;;;;5016106;28;20519;-93
2021/10/04 10:39:57;;;;;;;6.68;1.15;;;17.10;91.40;;;;;;5006779;28;20038;-94
2021/10/04 10:42:44;;;;;;;6.28;1.08;;;17.20;89.10;;;;;;4996979;28;20030;-93
2021/10/04 10:48:53;;;;;;;5.47;0.77;;;17.30;89.00;;;;;;5011962;28;20045;-94
2021/10/04 11:01:53;;;;;;;5.97;1.02;;;17.70;90.00;;;;;;4941624;29;20046;-93
2021/10/04 11:04:39;;;;;;;10.15;1.23;;;17.80;86.40;;;;;;4923356;29;20035;-94
2021/10/04 11:07:08;;;;;;;5.13;1.17;;;17.90;85.00;;;;;;5014715;28;20037;-94
2021/10/04 11:10:05;;;;;;;6.60;0.82;;;17.90;83.80;;;;;;4997034;28;20026;-93
2021/10/04 11:13:09;;;;;;;4.05;1.40;;;17.90;83.10;;;;;;5003622;28;20053;-94
2021/10/04 11:15:39;;;;;;;3.03;0.88;;;18.00;84.30;;;;;;5010207;28;20025;-93
2021/10/04 11:18:06;;;;;;;4.63;1.00;;;18.00;84.60;;;;;;4999552;28;20474;-93
2021/10/04 11:20:35;;;;;;;5.38;1.08;;;18.10;85.00;;;;;;4978451;28;20036;-95
2021/10/04 11:23:12;;;;;;;4.38;0.95;;;18.20;82.80;;;;;;4980094;28;20033;-90
2021/10/04 11:25:46;;;;;;;4.63;1.13;;;18.30;82.90;;;;;;5015941;28;20033;-91
2021/10/04 11:28:13;;;;;;;6.63;1.45;;;18.40;81.00;;;;;;5001525;28;20041;-92
2021/10/04 11:30:58;;;;;;;2.78;1.00;;;18.40;79.50;;;;;;4996529;28;20029;-88
2021/10/04 11:33:26;;;;;;;5.68;1.20;;;18.50;79.80;;;;;;5014453;28;20036;-91
2021/10/04 11:36:05;;;;;;;2.60;0.80;;;18.40;80.00;;;;;;4997199;28;20018;-90
2021/10/04 11:38:35;;;;;;;5.88;1.60;;;18.30;80.90;;;;;;5001391;28;20090;-91
2021/10/04 11:41:01;;;;;;;8.02;1.30;;;18.40;82.00;;;;;;5014166;28;20509;-92
2021/10/04 11:43:36;;;;;;;5.90;1.45;;;18.50;79.90;;;;;;5008469;28;20079;-93
2021/10/04 11:46:14;;;;;;;7.32;1.60;;;18.60;78.80;;;;;;5012227;28;20115;-93
2021/10/04 11:48:53;;;;;;;7.43;1.70;;;18.60;80.70;;;;;;5015723;28;20108;-93
2021/10/04 11:51:33;;;;;;;4.68;1.50;;;18.70;78.60;;;;;;5019998;28;20014;-92
2021/10/04 11:54:02;;;;;;;11.05;1.85;;;18.80;78.20;;;;;;5018849;28;20044;-92
2021/10/04 11:56:30;;;;;;;6.07;1.27;;;18.90;78.70;;;;;;5019658;28;20035;-92
2021/10/04 11:59:01;;;;;;;5.45;1.60;;;18.90;77.60;;;;;;5035135;28;20033;-92
2021/10/04 12:01:40;;;;;;;9.52;1.55;;;19.00;76.80;;;;;;5035406;28;20021;-91
2021/10/04 12:04:16;;;;;;;4.82;1.10;;;19.00;75.90;;;;;;5032374;28;20056;-91
2021/10/04 12:06:47;;;;;;;4.35;1.05;;;19.10;76.00;;;;;;5051781;28;20047;-91
2021/10/04 12:09:18;;;;;;;5.70;1.08;;;19.10;76.20;;;;;;5057638;28;20029;-91
2021/10/04 12:12:02;;;;;;;3.88;1.20;;;19.20;75.00;;;;;;5040102;28;20010;-91
2021/10/04 12:14:30;;;;;;;6.00;1.08;;;19.30;74.50;;;;;;5041685;28;20009;-92
2021/10/04 12:17:04;;;;;;;6.03;1.70;;;19.30;74.50;;;;;;5032634;28;20037;-93
2021/10/04 12:19:39;;;;;;;;;;;;;;;;;;;;;
2021/10/04 12:22:10;;;;;;;13.23;1.40;;;19.40;74.40;;;;;;5050821;28;20064;-92
2021/10/04 12:24:41;;;;;;;5.40;1.35;;;19.40;73.90;;;;;;5037946;28;20037;-91
2021/10/04 12:27:33;;;;;;;3.65;0.88;;;19.40;75.50;;;;;;5035745;28;20028;-93
2021/10/04 12:30:05;;;;;;;6.43;1.10;;;19.40;74.90;;;;;;5004055;28;20041;-93
2021/10/04 12:32:45;;;;;;;3.75;1.00;;;19.50;77.20;;;;;;5028012;28;20026;-91
2021/10/04 12:35:14;;;;;;;4.68;1.17;;;19.50;72.10;;;;;;5018346;28;20022;-92
2021/10/04 12:37:52;;;;;;;5.95;1.27;;;19.50;71.90;;;;;;5035148;28;20030;-93
2021/10/04 12:40:30;;;;;;;4.85;1.17;;;19.50;72.20;;;;;;5034678;28;20049;-92
2021/10/04 12:43:03;;;;;;;3.85;0.90;;;19.50;72.10;;;;;;5035904;28;20022;-92
2021/10/04 12:45:29;;;;;;;4.93;1.13;;;19.50;71.80;;;;;;5018129;28;20038;-90
2021/10/04 12:48:00;;;;;;;5.07;0.80;;;19.60;71.70;;;;;;5017274;28;20046;-91
2021/10/04 12:50:38;;;;;;;7.15;1.52;;;19.60;70.90;;;;;;5016746;28;20466;-91
2021/10/04 12:53:30;;;;;;;4.05;0.98;;;19.50;71.50;;;;;;5023544;28;20029;-91
2021/10/04 12:56:05;;;;;;;5.32;1.08;;;19.40;70.80;;;;;;5032520;28;20505;-90
2021/10/04 12:58:33;;;;;;;3.38;0.93;;;19.40;71.60;;;;;;5035218;28;20060;-91
2021/10/04 13:01:15;;;;;;;3.95;1.10;;;19.30;71.70;;;;;;5014218;28;20085;-91
2021/10/04 13:03:53;;;;;;;4.53;1.13;;;19.30;72.40;;;;;;5014216;28;20554;-91
2021/10/04 13:06:19;;;;;;;6.43;1.33;;;19.40;72.70;;;;;;5016577;28;20067;-92
2021/10/04 13:08:45;;;;;;;5.60;1.05;;;19.40;73.40;;;;;;5016801;28;20112;-91
2021/10/04 13:11:10;;;;;;;7.00;1.40;;;19.60;73.60;;;;;;5007437;28;20119;-91